Time;durP1;ratioP1;P1;durP2;ratioP2;P2;SDS_P1;SDS_P2;PMS_P1;PMS_P2;Temp;Humidity;BMP_temperature;BMP_pressure;BME280_temperature;BME280_humidity;BME280_pressure;Samples;Min_cycle;Max_cycle;Signal;HPM_P1;HPM_P2
2022/08/11 00:00:45;;;;;;;5.95;3.60;;;17.30;99.90;;;;;;5089279;28;20056;-79
2022/08/11 00:03:13;;;;;;;5.93;3.97;;;17.30;99.90;;;;;;5089340;28;20825;-80
2022/08/11 00:05:47;;;;;;;6.50;4.50;;;17.30;99.90;;;;;;5071246;28;20070;-81
2022/08/11 00:08:29;;;;;;;7.38;4.05;;;17.20;99.90;;;;;;5089728;28;20447;-80
2022/08/11 00:11:04;;;;;;;10.30;4.03;;;17.20;99.90;;;;;;5089139;28;20502;-80
2022/08/11 00:13:36;;;;;;;5.97;3.88;;;17.20;99.90;;;;;;5089651;28;20044;-80
2022/08/11 00:16:09;;;;;;;4.90;3.33;;;17.20;99.90;;;;;;5071579;28;20048;-79
2022/08/11 00:18:48;;;;;;;7.32;4.10;;;17.10;99.90;;;;;;5089024;28;20058;-79
2022/08/11 00:21:15;;;;;;;5.85;3.42;;;17.10;99.90;;;;;;5070971;28;20047;-78
2022/08/11 00:23:56;;;;;;;5.78;3.60;;;17.10;99.90;;;;;;5089325;28;20143;-79
2022/08/11 00:26:23;;;;;;;9.65;3.95;;;17.00;99.90;;;;;;5071089;28;20093;-79
2022/08/11 00:28:50;;;;;;;8.45;4.40;;;17.00;99.90;;;;;;5070504;28;20056;-79
2022/08/11 00:31:30;;;;;;;7.03;4.43;;;17.00;99.90;;;;;;5070421;28;20110;-80
2022/08/11 00:33:57;;;;;;;7.75;3.90;;;17.00;99.90;;;;;;5074154;28;20087;-79
2022/08/11 00:36:28;;;;;;;4.97;3.83;;;16.90;99.90;;;;;;5074535;28;20130;-80
2022/08/11 00:39:02;;;;;;;6.25;4.25;;;16.80;99.90;;;;;;5074312;28;20082;-80
2022/08/11 00:41:54;;;;;;;6.22;4.25;;;16.80;99.90;;;;;;5074687;28;20048;-80
2022/08/11 00:44:31;;;;;;;8.57;4.25;;;16.90;99.90;;;;;;4974210;28;20112;-79
2022/08/11 00:47:56;;;;;;;5.97;3.47;;;16.80;99.90;;;;;;4974317;28;20097;-80
2022/08/11 00:50:42;;;;;;;6.90;4.07;;;16.70;99.90;;;;;;4915910;29;20056;-80
2022/08/11 00:53:26;;;;;;;8.38;4.38;;;16.70;99.90;;;;;;4931965;29;20503;-79
2022/08/11 00:56:19;;;;;;;6.65;3.85;;;16.70;99.90;;;;;;4932230;29;20055;-79
2022/08/11 00:58:56;;;;;;;7.85;3.67;;;16.70;99.90;;;;;;4932647;29;20455;-79
2022/08/11 01:01:37;;;;;;;7.32;3.80;;;16.50;99.90;;;;;;4938633;29;20099;-79
2022/08/11 01:04:47;;;;;;;6.82;3.72;;;16.50;99.90;;;;;;4942017;29;20056;-79
2022/08/11 01:07:15;;;;;;;7.13;3.88;;;16.50;99.90;;;;;;4915311;29;20071;-79
2022/08/11 01:10:13;;;;;;;12.55;4.10;;;16.50;99.90;;;;;;4898941;29;20067;-81
2022/08/11 01:13:02;;;;;;;7.32;3.75;;;16.50;99.90;;;;;;4913411;29;20429;-80
2022/08/11 01:15:44;;;;;;;8.18;4.15;;;16.40;99.90;;;;;;4913405;29;20056;-80
2022/08/11 01:18:53;;;;;;;5.93;4.57;;;16.40;99.90;;;;;;4912747;29;20142;-79
2022/08/11 01:21:42;;;;;;;5.20;4.00;;;16.40;99.90;;;;;;4958550;28;20066;-79
2022/08/11 01:24:36;;;;;;;4.45;3.75;;;16.30;99.90;;;;;;4989709;28;20058;-80
2022/08/11 01:27:13;;;;;;;7.60;3.95;;;16.30;99.90;;;;;;4989859;28;20050;-80
2022/08/11 01:30:06;;;;;;;8.10;4.03;;;16.30;99.90;;;;;;5019801;28;20040;-79
2022/08/11 01:32:54;;;;;;;5.70;4.05;;;16.20;99.90;;;;;;5069222;28;20056;-80
2022/08/11 01:35:48;;;;;;;4.85;3.90;;;16.20;99.90;;;;;;5069129;28;20139;-80
2022/08/11 01:38:52;;;;;;;6.97;4.10;;;16.20;99.90;;;;;;5068565;28;20411;-79
2022/08/11 01:45:06;;;;;;;5.88;4.22;;;16.10;99.90;;;;;;5065863;28;20373;-78
2022/08/11 01:47:51;;;;;;;6.43;4.13;;;16.10;99.90;;;;;;5036529;28;20053;-80
2022/08/11 01:50:35;;;;;;;7.40;4.30;;;16.10;99.90;;;;;;5047756;28;20087;-79
2022/08/11 01:53:16;;;;;;;5.83;4.30;;;16.00;99.90;;;;;;5091192;28;20091;-80
2022/08/11 01:55:46;;;;;;;6.85;4.60;;;16.00;99.90;;;;;;5091038;28;20298;-79
2022/08/11 01:58:11;;;;;;;6.85;4.28;;;16.00;99.90;;;;;;5090974;28;20460;-79
2022/08/11 02:01:05;;;;;;;9.10;4.65;;;16.10;99.90;;;;;;5072313;28;20047;-78
2022/08/11 02:03:40;;;;;;;7.05;4.55;;;15.90;99.90;;;;;;5090697;28;20058;-80
2022/08/11 02:09:40;;;;;;;7.93;5.22;;;15.90;99.90;;;;;;5072378;28;19927;-80
2022/08/11 02:12:59;;;;;;;7.35;4.85;;;15.90;99.90;;;;;;5091072;28;20048;-79
2022/08/11 02:15:46;;;;;;;7.57;5.20;;;15.80;99.90;;;;;;4988870;28;20092;-79
2022/08/11 02:23:38;;;;;;;6.57;5.07;;;15.80;99.90;;;;;;4988207;28;20050;-79
2022/08/11 02:24:40;;;;;;;6.57;4.72;;;15.80;99.90;;;;;;4939138;28;20147;-78
2022/08/11 02:27:19;;;;;;;8.73;5.68;;;15.70;99.90;;;;;;4945279;28;20059;-79
2022/08/11 02:30:06;;;;;;;12.65;6.13;;;15.80;99.90;;;;;;4949552;29;20455;-79
2022/08/11 02:36:07;;;;;;;9.18;5.90;;;15.70;99.90;;;;;;4915061;29;20416;-79
2022/08/11 02:38:52;;;;;;;11.45;6.07;;;15.60;99.90;;;;;;4914654;29;20060;-80
2022/08/11 02:44:54;;;;;;;11.35;6.53;;;15.60;99.90;;;;;;4930133;29;20056;-79
2022/08/11 02:50:50;;;;;;;10.55;6.20;;;15.50;99.90;;;;;;4938251;28;20111;-80
2022/08/11 02:53:19;;;;;;;11.35;7.40;;;15.50;99.90;;;;;;4971516;28;20482;-79
2022/08/11 02:56:09;;;;;;;11.77;8.13;;;15.50;99.90;;;;;;4987807;28;20186;-79
2022/08/11 03:01:52;;;;;;;12.68;7.78;;;15.30;99.90;;;;;;4987187;28;20054;-80
2022/08/11 03:04:36;;;;;;;11.48;7.10;;;15.20;99.90;;;;;;4968622;28;20197;-80
2022/08/11 03:07:23;;;;;;;9.85;6.90;;;15.20;99.90;;;;;;4968600;28;20653;-79
2022/08/11 03:10:19;;;;;;;13.27;8.57;;;15.20;99.90;;;;;;4981535;28;20054;-78
2022/08/11 03:19:20;;;;;;;10.80;7.60;;;15.00;99.90;;;;;;5026882;28;20139;-80
2022/08/11 03:21:51;;;;;;;6.72;5.85;;;14.90;99.90;;;;;;4935920;29;20064;-80
2022/08/11 03:24:46;;;;;;;6.35;5.10;;;14.80;99.90;;;;;;4929812;29;20534;-79
2022/08/11 03:27:35;;;;;;;5.18;4.00;;;14.70;99.90;;;;;;4929243;29;20095;-80
2022/08/11 03:30:04;;;;;;;4.65;3.63;;;14.70;99.90;;;;;;4929947;29;20122;-80
2022/08/11 03:32:40;;;;;;;5.00;3.75;;;14.60;99.90;;;;;;4929195;29;20067;-78
2022/08/11 03:35:10;;;;;;;7.05;5.75;;;14.60;99.90;;;;;;4929816;29;20094;-79
2022/08/11 03:37:49;;;;;;;11.35;7.07;;;14.60;99.90;;;;;;4945462;28;20055;-80
2022/08/11 03:41:41;;;;;;;9.30;5.85;;;14.50;99.90;;;;;;5004103;28;20058;-79
2022/08/11 03:43:30;;;;;;;8.15;5.85;;;14.50;99.90;;;;;;4968891;28;20047;-78
2022/08/11 03:46:13;;;;;;;6.05;4.82;;;14.50;99.90;;;;;;4952080;28;20058;-79
2022/08/11 03:48:53;;;;;;;14.48;10.32;;;14.50;99.90;;;;;;4976138;28;20397;-79
2022/08/11 03:51:29;;;;;;;14.10;12.18;;;14.50;99.90;;;;;;4987195;28;20062;-79
2022/08/11 03:54:18;;;;;;;12.55;9.30;;;14.40;99.90;;;;;;4985959;28;20042;-78
2022/08/11 03:57:14;;;;;;;11.93;9.60;;;14.30;99.90;;;;;;4987791;28;20053;-79
2022/08/11 03:59:50;;;;;;;14.50;8.80;;;14.30;99.90;;;;;;5077676;28;20096;-79
2022/08/11 04:02:53;;;;;;;13.95;11.50;;;14.30;99.90;;;;;;5070977;28;20083;-79
2022/08/11 04:05:39;;;;;;;10.02;8.88;;;14.20;99.90;;;;;;5088917;28;20048;-79
2022/08/11 04:08:19;;;;;;;10.52;8.70;;;14.10;99.90;;;;;;5112090;28;20051;-78
2022/08/11 04:11:03;;;;;;;9.55;7.90;;;14.10;99.90;;;;;;5055429;28;20048;-80
2022/08/11 04:13:54;;;;;;;9.82;6.78;;;14.10;99.90;;;;;;5063387;28;20487;-78
2022/08/11 04:16:40;;;;;;;11.57;8.25;;;14.10;99.90;;;;;;5069403;28;20047;-80
2022/08/11 04:19:24;;;;;;;17.98;12.38;;;14.20;99.90;;;;;;5093695;28;20052;-79
2022/08/11 04:22:21;;;;;;;12.48;9.52;;;14.10;99.90;;;;;;5093545;28;20083;-79
2022/08/11 04:25:05;;;;;;;8.45;7.15;;;14.10;99.90;;;;;;5075180;28;20048;-79
2022/08/11 04:27:46;;;;;;;10.38;7.07;;;14.20;99.90;;;;;;5093313;28;20508;-79
2022/08/11 04:30:46;;;;;;;12.57;7.03;;;14.20;99.90;;;;;;5074807;28;20056;-79
2022/08/11 04:33:18;;;;;;;10.88;8.10;;;14.20;99.90;;;;;;4994772;28;20160;-79
2022/08/11 04:35:52;;;;;;;16.67;11.70;;;14.20;99.90;;;;;;5005925;28;20052;-79
2022/08/11 04:38:38;;;;;;;19.20;9.90;;;14.30;99.90;;;;;;5029423;28;20466;-79
2022/08/11 04:43:19;;;;;;;15.02;9.25;;;14.30;99.90;;;;;;5030183;28;20084;-78
2022/08/11 04:44:51;;;;;;;14.23;9.57;;;14.30;99.90;;;;;;5010317;28;20485;-79
2022/08/11 05:03:02;;;;;;;19.60;13.02;;;14.90;99.90;;;;;;5029408;28;20045;-78
2022/08/11 05:05:58;;;;;;;20.00;12.05;;;15.10;99.90;;;;;;5029709;28;20088;-77
2022/08/11 05:09:04;;;;;;;21.63;12.50;;;15.20;99.90;;;;;;5024397;28;20088;-78
2022/08/11 05:12:08;;;;;;;21.95;13.23;;;15.50;99.90;;;;;;5086537;28;20044;-78
2022/08/11 05:34:51;;;;;;;16.30;10.88;;;16.20;99.90;;;;;;5071867;28;20105;-78
2022/08/11 05:37:23;;;;;;;16.80;10.57;;;16.50;99.90;;;;;;5070187;28;20051;-76
2022/08/11 05:56:55;;;;;;;15.10;11.15;;;17.00;99.90;;;;;;5092867;28;20483;-78
2022/08/11 05:59:23;;;;;;;16.52;10.68;;;17.10;99.90;;;;;;5091343;28;20131;-78
2022/08/11 06:01:49;;;;;;;13.38;9.30;;;17.30;99.90;;;;;;5091199;28;20087;-78
2022/08/11 06:04:21;;;;;;;14.60;9.30;;;17.30;99.90;;;;;;5091126;28;20055;-78
2022/08/11 06:07:02;;;;;;;14.57;10.30;;;17.40;99.90;;;;;;5060450;28;20056;-77
2022/08/11 06:09:45;;;;;;;13.98;9.15;;;17.50;99.90;;;;;;5091572;28;20040;-78
2022/08/11 06:12:22;;;;;;;14.93;9.55;;;17.60;99.90;;;;;;5090914;28;20407;-78
2022/08/11 06:14:52;;;;;;;15.73;8.82;;;17.70;99.90;;;;;;5091106;28;20126;-78
2022/08/11 06:17:27;;;;;;;12.13;8.57;;;17.70;99.90;;;;;;5072942;28;20111;-78
2022/08/11 06:20:11;;;;;;;13.65;9.35;;;17.90;99.90;;;;;;5072703;28;20870;-79
2022/08/11 06:22:40;;;;;;;13.23;8.57;;;18.00;99.90;;;;;;5071622;28;20479;-79
2022/08/11 06:25:08;;;;;;;13.85;8.40;;;18.00;99.90;;;;;;5091134;28;20094;-78
2022/08/11 06:27:36;;;;;;;10.80;7.85;;;18.10;99.90;;;;;;5090856;28;20390;-79
2022/08/11 06:30:12;;;;;;;14.15;8.02;;;18.40;99.90;;;;;;5055748;28;20052;-78
2022/08/11 06:32:40;;;;;;;16.25;7.65;;;18.30;99.90;;;;;;5090458;28;20052;-78
2022/08/11 06:35:10;;;;;;;9.82;7.10;;;18.30;99.90;;;;;;5052386;28;20059;-79
2022/08/11 06:37:54;;;;;;;12.57;7.57;;;18.50;99.90;;;;;;5070509;28;20049;-79
2022/08/11 06:44:06;;;;;;;9.65;7.57;;;18.70;99.90;;;;;;5089634;28;20044;-79
2022/08/11 06:46:37;;;;;;;10.40;6.57;;;18.70;99.90;;;;;;5090137;28;20097;-79
2022/08/11 06:51:55;;;;;;;11.02;5.85;;;19.00;99.90;;;;;;5110463;28;20104;-78
2022/08/11 06:54:22;;;;;;;8.20;5.80;;;19.10;99.90;;;;;;5071282;28;20127;-80
2022/08/11 07:02:25;;;;;;;7.75;5.03;;;19.40;99.90;;;;;;5090802;28;20044;-82
2022/08/11 07:05:07;;;;;;;9.30;5.38;;;19.50;99.90;;;;;;5090177;28;20051;-86
2022/08/11 07:16:57;;;;;;;8.02;4.78;;;20.00;99.90;;;;;;5090332;28;20051;-83
2022/08/11 07:31:23;;;;;;;7.35;3.85;;;20.70;99.90;;;;;;5071916;28;20091;-87
2022/08/11 07:33:56;;;;;;;8.55;3.97;;;20.90;99.90;;;;;;5098709;28;20096;-86
2022/08/11 07:36:30;;;;;;;8.13;3.60;;;21.10;99.90;;;;;;5091969;28;20081;-89
2022/08/11 07:38:57;;;;;;;4.82;3.08;;;21.20;99.90;;;;;;5092236;28;20056;-88
2022/08/11 07:41:24;;;;;;;8.77;3.40;;;21.40;99.90;;;;;;5092084;28;20058;-88
2022/08/11 07:44:08;;;;;;;9.25;3.42;;;21.50;99.90;;;;;;5069830;28;20539;-88
2022/08/11 07:52:32;;;;;;;8.82;3.20;;;22.00;99.90;;;;;;5075299;28;20094;-78
2022/08/11 07:55:24;;;;;;;8.43;2.40;;;22.30;99.90;;;;;;5094068;28;20052;-80
2022/08/11 08:19:50;;;;;;;3.88;1.80;;;25.10;99.90;;;;;;5072270;28;20086;-82
2022/08/11 08:22:20;;;;;;;5.18;1.73;;;25.30;99.90;;;;;;5085830;28;20047;-82
2022/08/11 08:24:56;;;;;;;6.78;1.55;;;25.50;99.90;;;;;;5106423;28;20051;-82
2022/08/11 08:27:24;;;;;;;3.53;1.48;;;25.70;99.90;;;;;;5080560;28;20399;-79
2022/08/11 08:32:39;;;;;;;6.47;1.30;;;26.10;99.90;;;;;;5094144;28;20056;-81
2022/08/11 08:35:06;;;;;;;5.10;1.60;;;26.30;99.90;;;;;;5074894;28;20052;-82
2022/08/11 08:37:32;;;;;;;2.83;1.10;;;26.40;99.90;;;;;;5093046;28;20419;-80
2022/08/11 08:39:58;;;;;;;6.78;1.48;;;26.70;99.90;;;;;;5073723;28;20060;-80
2022/08/11 08:42:31;;;;;;;5.28;1.25;;;26.90;99.90;;;;;;5092828;28;20441;-81
2022/08/11 08:45:09;;;;;;;5.32;1.20;;;27.10;99.90;;;;;;5074510;28;20060;-80
2022/08/11 08:47:40;;;;;;;6.03;1.73;;;27.40;99.90;;;;;;5092926;28;20130;-80
2022/08/11 08:50:09;;;;;;;4.60;1.20;;;27.60;99.90;;;;;;5074502;28;20051;-80
2022/08/11 08:52:41;;;;;;;6.82;1.65;;;27.70;99.90;;;;;;5092296;28;20085;-80
2022/08/11 08:55:11;;;;;;;3.65;1.20;;;27.80;99.90;;;;;;5092449;28;20123;-80
2022/08/11 08:57:40;;;;;;;6.38;1.17;;;28.00;99.90;;;;;;5092203;28;20734;-80
2022/08/11 09:00:07;;;;;;;11.63;1.83;;;28.20;99.90;;;;;;5092483;28;20399;-80
2022/08/11 09:02:33;;;;;;;2.30;1.10;;;28.40;99.90;;;;;;5092472;28;20052;-80
2022/08/11 09:05:00;;;;;;;3.28;1.20;;;28.50;99.90;;;;;;5074331;28;20400;-81
2022/08/11 09:07:27;;;;;;;4.80;1.42;;;28.50;99.90;;;;;;5092689;28;20086;-81
2022/08/11 09:09:56;;;;;;;8.43;1.30;;;28.60;99.90;;;;;;5074736;28;20085;-80
2022/08/11 09:12:26;;;;;;;3.75;1.00;;;28.90;99.90;;;;;;5092563;28;20052;-81
2022/08/11 09:15:06;;;;;;;6.32;1.17;;;29.00;99.40;;;;;;5092203;28;20052;-81
2022/08/11 09:18:04;;;;;;;7.20;1.20;;;29.20;99.90;;;;;;5074200;28;20044;-81
2022/08/11 09:20:33;;;;;;;5.63;1.52;;;29.40;97.40;;;;;;5091312;28;20052;-81
2022/08/11 09:28:40;;;;;;;6.97;1.50;;;29.70;98.00;;;;;;5073491;28;20495;-82
2022/08/11 09:31:06;;;;;;;3.13;1.45;;;29.90;98.40;;;;;;5092108;28;20051;-81
2022/08/11 09:33:33;;;;;;;3.40;1.20;;;30.00;97.50;;;;;;5073780;28;20090;-83
2022/08/11 09:41:29;;;;;;;4.50;1.20;;;30.30;96.30;;;;;;5091696;28;20650;-81
2022/08/11 09:46:40;;;;;;;3.28;1.33;;;30.50;94.40;;;;;;5091731;28;20052;-81
2022/08/11 09:49:06;;;;;;;4.32;1.17;;;30.50;94.50;;;;;;5073463;28;20047;-82
2022/08/11 09:51:32;;;;;;;8.27;1.40;;;30.60;94.50;;;;;;5073044;28;20576;-82
2022/08/11 09:54:05;;;;;;;5.53;1.30;;;30.70;95.00;;;;;;5091403;28;20055;-82
2022/08/11 09:59:21;;;;;;;3.40;1.30;;;31.00;94.80;;;;;;5091292;28;20052;-82
2022/08/11 10:01:58;;;;;;;12.70;1.40;;;31.10;93.70;;;;;;5091198;28;20047;-81
2022/08/11 10:04:33;;;;;;;5.97;1.50;;;31.20;94.20;;;;;;5091045;28;20130;-80
2022/08/11 10:07:00;;;;;;;4.85;1.10;;;31.30;92.50;;;;;;5072870;28;20054;-82
2022/08/11 10:09:47;;;;;;;5.80;1.20;;;31.30;93.00;;;;;;5091202;28;20043;-82
2022/08/11 10:12:26;;;;;;;6.65;1.33;;;31.50;92.90;;;;;;5072694;28;20056;-82
2022/08/11 10:15:34;;;;;;;23.08;2.30;;;31.60;90.40;;;;;;5091242;28;20063;-82
2022/08/11 10:20:59;;;;;;;3.55;1.00;;;31.70;91.30;;;;;;4988953;28;20078;-80
2022/08/11 10:29:00;;;;;;;3.88;1.00;;;31.90;90.20;;;;;;5008258;28;20069;-77
2022/08/11 10:34:10;;;;;;;7.85;1.10;;;32.10;86.70;;;;;;5008309;28;20101;-82
2022/08/11 10:36:43;;;;;;;6.55;1.38;;;32.10;87.50;;;;;;5008424;28;20053;-81
2022/08/11 10:39:10;;;;;;;11.50;1.00;;;32.10;87.10;;;;;;5008125;28;20877;-80
2022/08/11 10:44:22;;;;;;;6.25;1.20;;;32.30;84.60;;;;;;5007635;28;20054;-77
2022/08/11 10:49:33;;;;;;;3.50;0.82;;;32.30;81.20;;;;;;5008429;28;20133;-76
2022/08/11 11:00:23;;;;;;;3.58;0.93;;;32.30;81.90;;;;;;5090109;28;20150;-79
2022/08/11 11:02:51;;;;;;;4.47;1.05;;;32.50;81.40;;;;;;5090054;28;20044;-78
2022/08/11 11:05:29;;;;;;;6.07;1.10;;;32.60;81.50;;;;;;5072172;28;20040;-79
2022/08/11 11:08:51;;;;;;;2.85;1.00;;;32.80;77.80;;;;;;5090003;28;20055;-78
2022/08/11 11:10:58;;;;;;;6.55;0.90;;;32.80;79.00;;;;;;5071661;28;20047;-78
2022/08/11 11:19:07;;;;;;;3.43;1.00;;;32.80;78.70;;;;;;5027509;28;20056;-84
2022/08/11 11:21:35;;;;;;;2.15;0.80;;;33.10;75.80;;;;;;5027044;28;20079;-80
2022/08/11 11:24:10;;;;;;;10.63;1.20;;;33.00;77.40;;;;;;5025528;28;20069;-79
2022/08/11 11:26:42;;;;;;;2.08;0.93;;;32.90;76.30;;;;;;5027398;28;20140;-79
2022/08/11 11:29:33;;;;;;;3.65;0.93;;;33.00;77.10;;;;;;5026047;28;20056;-77
2022/08/11 11:32:31;;;;;;;3.03;1.00;;;33.00;76.20;;;;;;5008684;28;20050;-77
2022/08/11 11:35:20;;;;;;;5.80;1.08;;;33.10;72.60;;;;;;5010437;28;20060;-80
2022/08/11 11:37:49;;;;;;;4.43;1.65;;;33.20;76.60;;;;;;5026914;28;20100;-81
2022/08/11 11:40:21;;;;;;;3.40;0.80;;;33.30;75.00;;;;;;5025509;28;20056;-80
2022/08/11 11:42:51;;;;;;;13.15;1.13;;;33.50;75.60;;;;;;5007207;28;20466;-81
2022/08/11 11:45:19;;;;;;;2.50;1.02;;;33.50;74.70;;;;;;4987969;28;20144;-78
2022/08/11 11:47:52;;;;;;;3.30;0.90;;;33.50;73.60;;;;;;4986705;28;20045;-79
2022/08/11 11:50:35;;;;;;;3.88;1.02;;;33.40;73.60;;;;;;5007106;28;20053;-81
2022/08/11 11:53:05;;;;;;;3.67;0.80;;;33.60;73.40;;;;;;5008877;28;20077;-79
2022/08/11 11:55:31;;;;;;;3.72;0.80;;;33.60;72.20;;;;;;5003799;28;20057;-80
2022/08/11 12:03:30;;;;;;;3.60;0.88;;;33.60;71.50;;;;;;5068872;28;20127;-79
2022/08/11 12:05:56;;;;;;;4.70;1.02;;;33.70;71.40;;;;;;5051576;28;20052;-82
2022/08/11 12:08:24;;;;;;;5.28;1.08;;;33.80;72.00;;;;;;5051662;28;20384;-83
2022/08/11 12:13:39;;;;;;;2.78;1.00;;;33.90;70.10;;;;;;5069306;28;20044;-82
2022/08/11 12:13:46;;;;;;;2.95;0.90;;;33.90;70.80;;;;;;5068803;28;20059;-80
2022/08/11 12:16:14;;;;;;;4.50;0.90;;;34.00;70.10;;;;;;5051086;28;20056;-80
2022/08/11 12:18:42;;;;;;;6.28;1.10;;;34.00;71.70;;;;;;5050682;28;20063;-81
2022/08/11 12:21:09;;;;;;;2.03;0.88;;;34.30;72.10;;;;;;5069174;28;20399;-79
2022/08/11 12:29:09;;;;;;;2.22;0.90;;;34.50;71.90;;;;;;5070846;28;20057;-83
2022/08/11 12:31:37;;;;;;;2.47;0.65;;;34.50;70.50;;;;;;5079157;28;20471;-81
2022/08/11 12:34:11;;;;;;;2.53;0.90;;;34.30;69.80;;;;;;5092606;28;20047;-81
2022/08/11 12:36:43;;;;;;;3.78;0.80;;;34.40;69.80;;;;;;5082111;28;20048;-83
2022/08/11 12:39:18;;;;;;;3.03;0.95;;;34.40;67.90;;;;;;5072690;28;20060;-81
2022/08/11 12:47:18;;;;;;;2.85;0.80;;;34.50;68.30;;;;;;5074304;28;20063;-77
2022/08/11 12:52:42;;;;;;;3.17;0.93;;;34.50;68.80;;;;;;5085232;28;20120;-81
2022/08/11 12:58:14;;;;;;;5.30;0.93;;;34.40;67.80;;;;;;5092935;28;20463;-81
2022/08/11 12:58:16;;;;;;;3.88;0.82;;;34.50;68.60;;;;;;5092429;28;20090;-84
2022/08/11 13:06:17;;;;;;;2.90;0.70;;;34.50;68.10;;;;;;5112744;28;20055;-80
2022/08/11 13:08:45;;;;;;;5.88;1.00;;;34.50;67.40;;;;;;5112418;28;20842;-80
2022/08/11 13:14:17;;;;;;;5.43;1.10;;;34.60;67.80;;;;;;5085632;28;20135;-77
2022/08/11 13:19:30;;;;;;;5.88;0.85;;;34.70;68.30;;;;;;5092618;28;20546;-76
2022/08/11 13:21:57;;;;;;;5.38;0.93;;;34.70;66.30;;;;;;5092744;28;20039;-77
2022/08/11 13:24:27;;;;;;;4.10;0.90;;;34.50;65.80;;;;;;5091104;28;20091;-80
2022/08/11 13:26:53;;;;;;;4.15;0.90;;;34.50;66.10;;;;;;5091396;28;20482;-76
2022/08/11 13:29:21;;;;;;;5.43;0.80;;;34.40;65.50;;;;;;5091919;28;20066;-77
2022/08/11 13:31:47;;;;;;;4.50;0.80;;;34.30;66.30;;;;;;5091525;28;20047;-77
2022/08/11 13:34:15;;;;;;;4.68;0.80;;;34.30;66.10;;;;;;5058695;28;20428;-77
2022/08/11 13:36:42;;;;;;;2.97;0.90;;;34.50;67.10;;;;;;5073203;28;20091;-77
2022/08/11 13:39:09;;;;;;;5.45;0.77;;;34.50;67.60;;;;;;5091413;28;20078;-82
2022/08/11 13:41:38;;;;;;;2.47;0.80;;;34.60;67.60;;;;;;5090928;28;20200;-81
2022/08/11 13:44:11;;;;;;;3.60;0.85;;;34.40;66.80;;;;;;5091686;28;20051;-79
2022/08/11 13:46:41;;;;;;;4.72;1.60;;;34.50;66.30;;;;;;5091090;28;20776;-80
2022/08/11 13:49:09;;;;;;;5.22;1.40;;;34.60;67.20;;;;;;5091786;28;20059;-80
2022/08/11 13:51:39;;;;;;;6.57;1.02;;;34.50;66.00;;;;;;5091318;28;20102;-79
2022/08/11 13:54:19;;;;;;;2.42;0.98;;;34.50;67.90;;;;;;5091594;28;20076;-79
2022/08/11 13:56:50;;;;;;;3.10;0.80;;;34.80;67.50;;;;;;5091043;28;20131;-78
2022/08/11 13:59:21;;;;;;;1.98;0.73;;;34.80;67.60;;;;;;5091171;28;20097;-75
2022/08/11 14:01:48;;;;;;;3.38;0.80;;;34.70;67.20;;;;;;5073384;28;20051;-75
2022/08/11 14:04:23;;;;;;;7.82;0.88;;;34.80;66.30;;;;;;5091763;28;20067;-79
2022/08/11 14:06:52;;;;;;;2.40;0.88;;;34.80;66.30;;;;;;5090934;28;20118;-80
2022/08/11 14:09:28;;;;;;;5.78;0.85;;;34.70;64.70;;;;;;5090990;28;20044;-85
2022/08/11 14:14:47;;;;;;;6.53;0.80;;;34.50;63.60;;;;;;5072451;28;20071;-78
2022/08/11 14:17:16;;;;;;;5.28;0.90;;;34.50;65.40;;;;;;5090727;28;20127;-83
2022/08/11 14:19:46;;;;;;;3.30;1.23;;;34.80;65.90;;;;;;5091088;28;20094;-79
2022/08/11 14:22:14;;;;;;;2.33;0.80;;;34.90;66.60;;;;;;5091109;28;20127;-79
2022/08/11 14:24:42;;;;;;;4.63;0.85;;;35.10;66.60;;;;;;5089507;28;20395;-78
2022/08/11 14:27:10;;;;;;;4.95;1.02;;;35.10;65.30;;;;;;5111392;28;20089;-84
2022/08/11 14:29:39;;;;;;;1.67;0.80;;;35.00;65.00;;;;;;5093090;28;20051;-79
2022/08/11 14:32:07;;;;;;;3.90;1.02;;;34.90;64.20;;;;;;5111195;28;20050;-79
2022/08/11 14:34:35;;;;;;;8.18;0.95;;;35.10;65.40;;;;;;5111219;28;20066;-74
2022/08/11 14:37:14;;;;;;;1.60;0.82;;;35.00;64.00;;;;;;5090934;28;20036;-75
2022/08/11 14:39:53;;;;;;;3.67;0.77;;;34.70;63.10;;;;;;5090608;28;20055;-75
2022/08/11 14:47:56;;;;;;;3.58;0.70;;;34.30;65.20;;;;;;5089479;28;20044;-79
2022/08/11 14:50:24;;;;;;;5.18;0.93;;;34.60;65.50;;;;;;5090578;28;20052;-78
2022/08/11 14:52:53;;;;;;;2.55;0.70;;;34.70;65.10;;;;;;5089258;28;20056;-77
2022/08/11 14:58:08;;;;;;;3.45;0.70;;;34.60;64.20;;;;;;5089627;28;20044;-76
2022/08/11 15:00:34;;;;;;;6.03;0.80;;;34.60;64.30;;;;;;5090366;28;20048;-75
2022/08/11 15:03:11;;;;;;;5.05;0.80;;;34.50;64.30;;;;;;5090319;28;20482;-74
2022/08/11 15:05:47;;;;;;;3.70;0.98;;;34.30;63.00;;;;;;5071800;28;20119;-74
2022/08/11 15:08:14;;;;;;;4.88;0.82;;;34.30;63.50;;;;;;5089503;28;20044;-75
2022/08/11 15:10:41;;;;;;;2.63;0.70;;;34.10;64.20;;;;;;5071909;28;20036;-73
2022/08/11 15:13:07;;;;;;;9.27;0.88;;;34.00;64.00;;;;;;5071647;28;20473;-73
2022/08/11 15:18:19;;;;;;;3.25;0.73;;;34.00;64.10;;;;;;5071611;28;20056;-73
2022/08/11 15:37:24;;;;;;;5.20;0.90;;;33.80;64.30;;;;;;5090072;28;20407;-82
2022/08/11 15:37:25;;;;;;;3.35;1.00;;;33.20;65.70;;;;;;5089879;28;20159;-79
2022/08/11 15:46:01;;;;;;;9.70;1.00;;;33.10;66.90;;;;;;5071845;28;20454;-85
2022/08/11 15:48:32;;;;;;;6.88;1.20;;;32.90;66.60;;;;;;5089353;28;20039;-82
2022/08/11 15:51:10;;;;;;;3.88;0.93;;;32.90;67.10;;;;;;5089643;28;20051;-89
2022/08/11 15:53:49;;;;;;;9.35;0.82;;;32.90;67.50;;;;;;5089409;28;20539;-87
2022/08/11 15:56:16;;;;;;;6.85;1.05;;;32.80;68.40;;;;;;5089241;28;20047;-87
2022/08/11 16:04:23;;;;;;;2.92;0.90;;;32.70;67.70;;;;;;5092837;28;20074;-75
2022/08/11 16:07:13;;;;;;;3.08;1.20;;;32.40;67.20;;;;;;5094355;28;20052;-87
2022/08/11 16:09:45;;;;;;;1.70;0.70;;;32.40;67.80;;;;;;5094183;28;20673;-83
2022/08/11 16:12:19;;;;;;;4.18;1.10;;;32.60;69.10;;;;;;5093272;28;20119;-86
2022/08/11 16:17:43;;;;;;;6.80;1.15;;;32.60;69.10;;;;;;5094326;28;20457;-84
2022/08/11 16:20:11;;;;;;;3.35;1.00;;;32.70;69.90;;;;;;5094069;28;20056;-77
2022/08/11 16:22:44;;;;;;;7.43;1.20;;;32.60;69.30;;;;;;5093634;28;20044;-76
2022/08/11 16:25:13;;;;;;;3.92;1.10;;;32.50;69.50;;;;;;5076608;28;20063;-85
2022/08/11 16:27:46;;;;;;;5.00;0.95;;;32.40;69.60;;;;;;5075410;28;20052;-78
2022/08/11 16:30:13;;;;;;;5.28;0.88;;;32.30;70.20;;;;;;5093286;28;20058;-85
2022/08/11 16:32:43;;;;;;;3.22;0.90;;;32.40;69.50;;;;;;5092827;28;20461;-84
2022/08/11 16:40:48;;;;;;;2.38;1.00;;;31.80;69.90;;;;;;5092770;28;20059;-81
2022/08/11 16:49:15;;;;;;;5.40;0.90;;;31.70;70.30;;;;;;5010186;28;20061;-82
2022/08/11 16:51:41;;;;;;;3.65;1.23;;;31.60;69.80;;;;;;5009675;28;20109;-82
2022/08/11 16:54:07;;;;;;;2.67;0.95;;;31.40;69.80;;;;;;5003203;28;20622;-81
2022/08/11 16:56:48;;;;;;;4.10;1.10;;;31.30;70.10;;;;;;4990054;28;20058;-83
2022/08/11 16:59:22;;;;;;;5.70;0.90;;;31.20;70.20;;;;;;4989842;28;20062;-79
2022/08/11 17:01:59;;;;;;;;;;;31.10;70.30;;;;;;4990581;28;20042;-84
2022/08/11 17:18:38;;;;;;;4.13;1.20;;;30.40;71.90;;;;;;5092325;28;20044;-76
2022/08/11 17:21:03;;;;;;;4.72;1.35;;;30.30;72.20;;;;;;5091885;28;20522;-76
2022/08/11 17:23:51;;;;;;;5.40;0.93;;;30.20;72.60;;;;;;5092349;28;20048;-76
2022/08/11 17:26:18;;;;;;;8.45;1.33;;;30.10;72.50;;;;;;5091656;28;20060;-76
2022/08/11 17:28:50;;;;;;;6.97;1.60;;;29.90;72.60;;;;;;5091706;28;20051;-77
2022/08/11 17:37:08;;;;;;;6.35;1.40;;;29.70;73.20;;;;;;4989951;28;20046;-76
2022/08/11 17:39:34;;;;;;;3.28;1.05;;;29.60;73.30;;;;;;4990174;28;20058;-78
2022/08/11 17:50:18;;;;;;;6.47;1.40;;;29.20;74.60;;;;;;4990014;28;20050;-83
2022/08/11 18:01:04;;;;;;;4.07;1.60;;;28.90;76.00;;;;;;4989593;28;20054;-82
2022/08/11 18:03:38;;;;;;;3.45;1.08;;;28.70;76.20;;;;;;4990051;28;20054;-86
2022/08/11 18:06:07;;;;;;;3.45;1.60;;;28.60;76.30;;;;;;5058988;28;20056;-86
